Hydes, MD (21082)

6:34 AM EDT on April 02, 2015 (GMT -0400)
Carroll Manor | | Change Station
CLOSE
Current Station
Personal Weather Station
Location: Baldwin, MD
Elevation: 548 ft
Nearby Weather Stations
Active Advisory: Special Statement

Elev 548 ft 39.50 °N, 76.51 °W | Updated 8 seconds ago

Clear
Clear
40.5 °F
Feels Like 40 °F
N
0.0
Wind Variable Wind from SW
Gusts 0.0 mph

Today
High -- | Low -- °F
--% Chance of Precip.
Yesterday
High -- | Low -- °F
Precip. -- in
6:49 AM 7:30 PM
Waxing Gibbous, 96% visible
Pressure 30.27 in
Visibility 10.0 miles
Clouds Clear
Windchill 40 °F
Dew Point 28 °F
Humidity 61%
Rainfall 0.00 in
Snow Depth Not available.
UV 0.0 out of 12
Pollen 9.00 out of 12
Air Quality Not available.
Flu Activity Not available.
METAR KMTN 020945Z 00000KT 10SM SKC 02/01 A3027 RMK FIRST

More Conditions Fewer Conditions

Pressure 30.27 in
Visibility 10.0 miles
Clouds Clear
Windchill 40 °F
Dew Point 28 °F
Humidity 61%
Rainfall 0.00 in
Snow Depth Not available.
UV 0.0 out of 12
Pollen 9.00 out of 12
Air Quality Not available.
Flu Activity Not available.
METAR KMTN 020945Z 00000KT 10SM SKC 02/01 A3027 RMK FIRST

More Conditions Fewer Conditions

10-Day Weather Forecast

Almanac

Astronomy

Apr. 02, 2015 Rise Set
Actual Time
Civil Twilight
Nautical Twilight
Astronomical Twilight
Moon
Length of Visible Light
Length of Day
Tomorrow will be .
, % of the Moon is Illuminated

Today's Extremes

State Highs State Lows

Community

WunderPhotos

Upload Photos

1,810,216 photos uploaded!

WunderBlogs® & News

Nearby

Air Quality

  Air Quality AQ Index Pollutant
Not available.

Snow Depth

Station Depth Elevation

Earthquake Activity

City Distance Mag. Time & Date
Minimum magnitude displayed is 2.5.

Coastal Water Temperatures

Place Temperature

Stations

Nearby Weather Stations

Station Location Temp. Windchill Dew Point Humidity Wind Precip. Elev Updated Type
                   
Special Statement
Statement as of 5:05 AM EDT on April 02, 2015

... Increased wildfire risk for much of this central mid-Atlantic
this afternoon...

The combination of strong winds and low relative humidity will
enhance the threat for the spread of wildfires from midday today
through this afternoon. South winds will increase to 15 mph with
gusts to around 25 mph and the relative humidity will drop to
around 30 percent in some areas. Dry fuel moisture is
low... generally 5 to 7 percent.

Residents are urged to exercise caution handling any potential
ignition source... including machinery... cigarettes... and matches.
Be sure to properly discard all smoking materials. Any dry grasses
and tree litter that ignite will have the potential to spread
quickly.

Maryland and Virginia residents are reminded that open burning is
prohibited by law before 4 PM... 5 PM for West Virginia.


Jackson